Terminal Aerodrome Forecast
Issued by NWS Charleston, WV

Current Version | Previous Version | Text Only | Print | Product List | Glossary Off
Versions: 1 2 3 4 5 6 7 8 9 10 11 12 13 14 15 16 17 18 19 20 21 22 23 24 25

000
FTUS41 KRLX 210900 AAA
TAFEKN
TAF AMD
KEKN 210907Z 2109/2206 27010G18KT P6SM OVC040
     FM211000 29008KT 6SM BR BKN015
     FM211700 29005KT P6SM BKN025
     FM212000 28004KT P6SM SCT030=

USA.gov is the U.S. government's official web portal to all federal, state and local government web resources and services.